createdAt,value
2022-12-23T00:02:05.419Z,4.61
2022-12-23T00:04:52.611Z,4.58
2022-12-23T00:07:39.866Z,4.58
2022-12-23T00:10:26.511Z,4.56
2022-12-23T00:13:32.529Z,4.58
2022-12-23T00:16:19.579Z,4.57
2022-12-23T00:19:07.151Z,4.53
2022-12-23T00:21:54.068Z,4.51
2022-12-23T00:24:41.074Z,4.53
2022-12-23T00:27:29.681Z,4.57
2022-12-23T00:30:20.430Z,4.59
2022-12-23T00:33:07.136Z,4.55
2022-12-23T00:35:54.673Z,4.53
2022-12-23T00:39:00.058Z,4.54
2022-12-23T00:42:06.026Z,4.55
2022-12-23T00:44:52.957Z,4.58
2022-12-23T00:48:06.465Z,4.57
2022-12-23T00:50:53.539Z,4.54
2022-12-23T00:53:40.765Z,4.56
2022-12-23T00:56:27.475Z,4.58
2022-12-23T00:59:14.944Z,4.63
2022-12-23T01:02:21.224Z,4.63
2022-12-23T01:05:29.750Z,4.58
2022-12-23T01:08:16.528Z,4.54
2022-12-23T01:11:05.726Z,4.55
2022-12-23T01:13:52.812Z,4.58
2022-12-23T01:16:40.582Z,4.61
2022-12-23T01:19:28.446Z,4.60
2022-12-23T01:22:15.842Z,4.56
2022-12-23T01:25:02.920Z,4.56
2022-12-23T01:27:49.853Z,4.51
2022-12-23T01:30:38.059Z,4.50
2022-12-23T01:33:25.362Z,4.52
2022-12-23T01:36:12.281Z,4.49
2022-12-23T01:38:59.647Z,4.48
2022-12-23T01:42:05.719Z,4.42
2022-12-23T01:44:55.228Z,4.40
2022-12-23T01:47:44.767Z,4.41
2022-12-23T01:50:39.999Z,4.45
2022-12-23T01:53:31.189Z,4.48
2022-12-23T01:56:33.304Z,4.41
2022-12-23T01:59:38.945Z,4.26
2022-12-23T02:02:46.186Z,4.23
2022-12-23T02:05:34.656Z,4.15
2022-12-23T02:08:40.811Z,4.11
2022-12-23T02:11:47.673Z,4.03
2022-12-23T02:15:23.180Z,3.98
2022-12-23T02:18:41.683Z,3.92
2022-12-23T02:21:47.286Z,3.92
2022-12-23T02:25:05.417Z,3.93
2022-12-23T02:28:31.140Z,3.97
2022-12-23T02:31:38.202Z,3.93
2022-12-23T02:34:56.051Z,3.91
2022-12-23T02:38:07.651Z,3.88
2022-12-23T02:41:10.896Z,3.87
2022-12-23T02:44:06.483Z,3.87
2022-12-23T02:47:00.541Z,3.89
2022-12-23T02:49:55.099Z,3.89
2022-12-23T02:52:44.950Z,3.84
2022-12-23T02:55:35.798Z,3.79
2022-12-23T02:58:32.459Z,3.80
2022-12-23T03:01:20.686Z,3.79
2022-12-23T03:04:07.732Z,3.78
2022-12-23T03:06:57.479Z,3.75
2022-12-23T03:10:02.534Z,3.74
2022-12-23T03:13:36.750Z,3.76
2022-12-23T03:16:40.590Z,3.84
2022-12-23T03:19:35.094Z,3.87
2022-12-23T03:22:35.347Z,3.85
2022-12-23T03:25:30.037Z,3.80
2022-12-23T03:28:27.459Z,3.80
2022-12-23T03:31:18.750Z,3.86
2022-12-23T03:34:10.644Z,3.87
2022-12-23T03:37:01.543Z,3.92
2022-12-23T03:39:54.433Z,3.93
2022-12-23T03:42:45.040Z,3.92
2022-12-23T03:45:39.826Z,3.84
2022-12-23T03:48:31.871Z,3.80
2022-12-23T03:51:29.561Z,3.83
2022-12-23T03:54:23.915Z,3.85
2022-12-23T03:57:13.170Z,3.81
2022-12-23T04:00:00.486Z,3.75
2022-12-23T04:02:57.861Z,3.73
2022-12-23T04:05:54.139Z,3.71
2022-12-23T04:08:43.267Z,3.71
2022-12-23T04:11:30.078Z,3.73
2022-12-23T04:14:18.849Z,3.75
2022-12-23T04:17:06.175Z,3.67
2022-12-23T04:19:53.662Z,3.57
2022-12-23T04:22:43.457Z,3.51
2022-12-23T04:25:30.623Z,3.47
2022-12-23T04:28:18.363Z,3.37
2022-12-23T04:31:05.355Z,3.23
2022-12-23T04:33:52.478Z,3.15
2022-12-23T04:36:39.438Z,3.08
2022-12-23T04:39:26.330Z,3.04
2022-12-23T04:42:13.337Z,3.02
2022-12-23T04:45:00.230Z,2.97
2022-12-23T04:47:47.175Z,2.93
2022-12-23T04:50:34.036Z,2.89
2022-12-23T04:53:21.464Z,2.84
2022-12-23T04:56:08.373Z,2.72
2022-12-23T04:58:55.417Z,2.63
2022-12-23T05:01:42.582Z,2.63
2022-12-23T05:04:29.992Z,2.62
2022-12-23T05:07:17.818Z,2.66
2022-12-23T05:10:05.405Z,2.73
2022-12-23T05:12:52.578Z,2.78
2022-12-23T05:15:39.331Z,2.80
2022-12-23T05:18:26.423Z,2.82
2022-12-23T05:21:13.602Z,2.90
2022-12-23T05:24:01.767Z,2.97
2022-12-23T05:26:52.819Z,3.02
2022-12-23T05:29:44.848Z,3.07
2022-12-23T05:32:31.767Z,3.05
2022-12-23T05:35:18.666Z,3.00
2022-12-23T05:38:05.963Z,2.98
2022-12-23T05:40:53.144Z,3.00
2022-12-23T05:43:40.259Z,3.02
2022-12-23T05:46:27.619Z,3.08
2022-12-23T05:49:15.165Z,3.06
2022-12-23T05:52:02.160Z,2.98
2022-12-23T05:54:49.224Z,2.95
2022-12-23T05:57:37.472Z,2.93
2022-12-23T06:00:34.349Z,2.92
2022-12-23T06:03:22.336Z,2.95
2022-12-23T06:06:09.516Z,2.98
2022-12-23T06:08:59.806Z,2.98
2022-12-23T06:11:47.591Z,2.99
2022-12-23T06:14:34.953Z,2.97
2022-12-23T06:17:24.490Z,2.97
2022-12-23T06:20:18.098Z,2.98
2022-12-23T06:23:07.282Z,3.02
2022-12-23T06:26:01.865Z,3.01
2022-12-23T06:28:48.741Z,3.03
2022-12-23T06:31:35.622Z,3.07
2022-12-23T06:34:22.903Z,3.05
2022-12-23T06:37:09.846Z,2.98
2022-12-23T06:39:56.801Z,2.98
2022-12-23T06:42:43.587Z,3.01
2022-12-23T06:45:30.620Z,3.08
2022-12-23T06:48:17.522Z,3.19
2022-12-23T06:51:05.267Z,3.23
2022-12-23T06:53:52.231Z,3.22
2022-12-23T07:02:36.728Z,3.24
2022-12-23T07:05:23.968Z,3.28
2022-12-23T07:08:10.825Z,3.30
2022-12-23T07:11:01.869Z,3.31
2022-12-23T07:13:49.307Z,3.29
2022-12-23T07:16:36.428Z,3.27
2022-12-23T07:19:23.874Z,3.30
2022-12-23T07:22:10.610Z,3.38
2022-12-23T07:24:57.621Z,3.43
2022-12-23T07:27:44.571Z,3.46
2022-12-23T07:30:31.499Z,3.47
2022-12-23T07:33:18.237Z,3.46
2022-12-23T07:36:06.005Z,3.48
2022-12-23T07:38:52.990Z,3.55
2022-12-23T07:41:40.044Z,3.64
2022-12-23T07:44:27.640Z,3.59
2022-12-23T07:47:15.836Z,3.58
2022-12-23T07:50:03.169Z,3.58
2022-12-23T07:52:50.247Z,3.54
2022-12-23T07:55:37.432Z,3.55
2022-12-23T07:58:24.612Z,3.61
2022-12-23T08:01:11.590Z,3.75
2022-12-23T08:03:58.845Z,3.79
2022-12-23T08:06:46.017Z,3.80
2022-12-23T08:09:33.138Z,3.79
2022-12-23T08:12:20.319Z,3.77
2022-12-23T08:15:08.129Z,3.78
2022-12-23T08:17:56.453Z,3.80
2022-12-23T08:20:43.287Z,3.87
2022-12-23T08:23:31.538Z,3.95
2022-12-23T08:26:24.595Z,3.97
2022-12-23T08:29:11.855Z,3.97
2022-12-23T08:31:59.287Z,4.02
2022-12-23T08:34:46.128Z,4.13
2022-12-23T08:37:33.741Z,4.32
2022-12-23T08:40:21.236Z,4.50
2022-12-23T08:43:08.488Z,4.70
2022-12-23T08:45:55.608Z,4.89
2022-12-23T08:48:48.712Z,5.05
2022-12-23T08:51:37.386Z,5.24
2022-12-23T08:54:25.299Z,5.26
2022-12-23T08:57:12.160Z,5.30
2022-12-23T08:59:59.061Z,5.26
2022-12-23T09:02:46.297Z,5.27
2022-12-23T09:05:34.432Z,5.24
2022-12-23T09:08:21.369Z,5.27
2022-12-23T09:11:19.288Z,5.36
2022-12-23T09:14:08.585Z,5.52
2022-12-23T09:16:56.033Z,5.63
2022-12-23T09:19:48.634Z,5.80
2022-12-23T09:22:39.650Z,6.26
2022-12-23T09:25:26.854Z,6.39
2022-12-23T09:28:13.929Z,6.35
2022-12-23T09:31:09.007Z,6.36
2022-12-23T09:33:56.513Z,6.36
2022-12-23T09:36:43.628Z,6.38
2022-12-23T09:39:30.651Z,6.46
2022-12-23T09:42:36.554Z,6.48
2022-12-23T09:45:42.221Z,6.47
2022-12-23T09:48:36.101Z,6.49
2022-12-23T09:51:24.228Z,6.51
2022-12-23T09:54:25.932Z,6.55
2022-12-23T09:57:16.237Z,6.77
2022-12-23T10:00:13.352Z,7.21
2022-12-23T10:03:14.932Z,7.63
2022-12-23T10:06:14.437Z,7.95
2022-12-23T10:09:04.661Z,8.10
2022-12-23T10:11:53.453Z,8.26
2022-12-23T10:14:40.876Z,8.27
2022-12-23T10:17:30.334Z,8.30
2022-12-23T10:20:21.119Z,8.46
2022-12-23T10:23:13.677Z,8.31
2022-12-23T10:26:04.124Z,8.10
2022-12-23T10:28:54.946Z,8.00
2022-12-23T10:31:52.396Z,7.87
2022-12-23T10:34:51.583Z,7.69
2022-12-23T10:37:39.373Z,7.46
2022-12-23T10:40:34.415Z,7.37
2022-12-23T10:43:27.561Z,7.30
2022-12-23T10:46:14.531Z,7.23
2022-12-23T10:49:06.014Z,7.18
2022-12-23T10:52:00.331Z,7.15
2022-12-23T10:54:47.642Z,7.14
2022-12-23T10:57:34.324Z,7.12
2022-12-23T11:00:23.085Z,7.17
2022-12-23T11:03:18.889Z,7.22
2022-12-23T11:06:07.565Z,7.23
2022-12-23T11:08:56.256Z,7.26
2022-12-23T11:11:58.805Z,7.31
2022-12-23T11:14:53.509Z,7.36
2022-12-23T11:17:40.455Z,7.37
2022-12-23T11:20:28.198Z,7.32
2022-12-23T11:23:25.580Z,7.29
2022-12-23T11:26:20.159Z,7.25
2022-12-23T11:29:10.167Z,7.22
2022-12-23T11:31:57.359Z,7.20
2022-12-23T11:34:46.008Z,7.18
2022-12-23T11:37:37.969Z,7.17
2022-12-23T11:40:29.736Z,7.19
2022-12-23T11:43:17.837Z,7.22
2022-12-23T11:46:24.268Z,7.26
2022-12-23T11:49:22.202Z,7.26
2022-12-23T11:52:09.223Z,7.29
2022-12-23T11:54:58.022Z,7.34
2022-12-23T11:57:47.421Z,7.38
2022-12-23T12:00:41.526Z,7.38
2022-12-23T12:03:33.723Z,7.34
2022-12-23T12:06:21.956Z,7.28
2022-12-23T12:09:12.093Z,7.24
2022-12-23T12:12:03.951Z,7.23
2022-12-23T12:14:52.490Z,7.24
2022-12-23T12:17:42.297Z,7.29
2022-12-23T12:20:36.504Z,7.26
2022-12-23T12:23:35.650Z,7.24
2022-12-23T12:26:29.522Z,7.24
2022-12-23T12:29:22.812Z,7.28
2022-12-23T12:32:14.710Z,7.32
2022-12-23T12:35:22.938Z,7.38
2022-12-23T12:38:30.344Z,7.38
2022-12-23T12:41:22.927Z,7.40
2022-12-23T12:44:16.033Z,7.41
2022-12-23T12:47:36.058Z,7.44
2022-12-23T12:50:25.320Z,7.45
2022-12-23T12:53:14.255Z,7.48
2022-12-23T12:56:06.826Z,7.46
2022-12-23T12:58:59.133Z,7.48
2022-12-23T13:01:49.887Z,7.44
2022-12-23T13:04:44.722Z,7.40
2022-12-23T13:07:52.297Z,7.42
2022-12-23T13:10:53.397Z,7.47
2022-12-23T13:13:49.755Z,7.47
2022-12-23T13:16:59.538Z,7.44
2022-12-23T13:20:05.390Z,7.39
2022-12-23T13:22:55.055Z,7.37
2022-12-23T13:25:44.858Z,7.37
2022-12-23T13:28:47.644Z,7.36
2022-12-23T13:31:46.559Z,7.29
2022-12-23T13:34:47.715Z,7.24
2022-12-23T13:37:50.280Z,7.16
2022-12-23T13:40:41.521Z,7.14
2022-12-23T13:43:42.621Z,7.13
2022-12-23T13:46:34.455Z,7.18
2022-12-23T13:49:30.474Z,7.15
2022-12-23T13:52:35.751Z,7.11
2022-12-23T13:55:31.865Z,7.03
2022-12-23T13:58:24.246Z,7.02
2022-12-23T14:01:10.987Z,7.00
2022-12-23T14:04:17.624Z,7.00
2022-12-23T14:07:16.088Z,6.96
2022-12-23T14:10:10.589Z,6.92
2022-12-23T14:13:07.581Z,6.90
2022-12-23T14:16:01.917Z,6.90
2022-12-23T14:18:55.169Z,6.86
2022-12-23T14:21:57.849Z,6.83
2022-12-23T14:25:00.724Z,6.77
2022-12-23T14:28:17.417Z,6.68
2022-12-23T14:31:05.504Z,6.68
2022-12-23T14:34:23.223Z,6.68
2022-12-23T14:37:21.972Z,6.65
2022-12-23T14:40:28.000Z,6.58
2022-12-23T14:43:33.695Z,6.54
2022-12-23T14:46:35.193Z,6.52
2022-12-23T14:49:40.178Z,6.50
2022-12-23T14:52:44.348Z,6.46
2022-12-23T14:55:32.854Z,6.39
2022-12-23T14:58:27.900Z,6.32
2022-12-23T15:01:38.867Z,6.29
2022-12-23T15:04:31.819Z,6.33
2022-12-23T15:07:35.600Z,6.33
2022-12-23T15:10:24.676Z,6.36
2022-12-23T15:13:18.424Z,6.33
2022-12-23T15:16:15.878Z,6.32
2022-12-23T15:19:15.969Z,6.31
2022-12-23T15:22:17.921Z,6.31
2022-12-23T15:25:44.186Z,6.32
2022-12-23T15:28:36.801Z,6.32
2022-12-23T15:31:43.387Z,6.28
2022-12-23T15:34:31.957Z,6.26
2022-12-23T15:37:29.058Z,6.24
2022-12-23T15:40:42.446Z,6.26
2022-12-23T15:43:29.878Z,6.25
2022-12-23T15:46:21.928Z,6.19
2022-12-23T15:49:19.548Z,6.17
2022-12-23T15:52:09.793Z,6.17
2022-12-23T15:55:02.425Z,6.18
2022-12-23T15:57:54.264Z,6.18
2022-12-23T16:00:49.603Z,6.12
2022-12-23T16:03:39.310Z,6.05
2022-12-23T16:06:28.364Z,6.03
2022-12-23T16:09:20.721Z,6.02
2022-12-23T16:12:15.787Z,5.96
2022-12-23T16:15:19.792Z,5.97
2022-12-23T16:18:13.436Z,5.90
2022-12-23T16:21:05.916Z,5.92
2022-12-23T16:23:59.258Z,5.95
2022-12-23T16:26:51.155Z,5.95
2022-12-23T16:29:56.337Z,5.96
2022-12-23T16:32:53.175Z,5.92
2022-12-23T16:35:41.881Z,5.89
2022-12-23T16:38:29.997Z,5.91
2022-12-23T16:41:22.569Z,5.93
2022-12-23T16:44:15.257Z,5.98
2022-12-23T16:47:14.483Z,5.98
2022-12-23T16:50:01.105Z,5.94
2022-12-23T16:52:48.208Z,5.89
2022-12-23T16:55:46.212Z,5.86
2022-12-23T16:58:37.535Z,5.87
2022-12-23T17:01:26.218Z,5.89
2022-12-23T17:04:18.432Z,5.91
2022-12-23T17:07:12.537Z,5.94
2022-12-23T17:09:59.873Z,5.95
2022-12-23T17:12:51.788Z,5.92
2022-12-23T17:19:34.123Z,5.89
2022-12-23T17:23:21.505Z,5.91
2022-12-23T17:26:09.380Z,5.91
2022-12-23T17:28:56.599Z,5.92
2022-12-23T17:31:50.266Z,5.87
2022-12-23T17:34:42.456Z,5.85
2022-12-23T17:37:30.825Z,5.81
2022-12-23T17:40:18.681Z,5.79
2022-12-23T17:43:05.888Z,5.80
2022-12-23T17:45:58.339Z,5.77
2022-12-23T17:48:50.671Z,5.74
2022-12-23T17:51:40.351Z,5.74
2022-12-23T17:54:27.740Z,5.74
2022-12-23T17:57:26.306Z,5.80
2022-12-23T18:00:21.768Z,5.80
2022-12-23T18:03:23.644Z,5.79
2022-12-23T18:06:15.793Z,5.78
2022-12-23T18:09:02.685Z,5.84
2022-12-23T18:11:49.675Z,5.87
2022-12-23T18:14:36.356Z,5.87
2022-12-23T18:17:23.568Z,5.85
2022-12-23T18:20:18.175Z,5.85
2022-12-23T18:23:05.413Z,5.87
2022-12-23T18:25:53.208Z,5.89
2022-12-23T18:28:40.247Z,5.90
2022-12-23T18:31:27.641Z,5.88
2022-12-23T18:34:17.352Z,5.84
2022-12-23T18:37:04.595Z,5.80
2022-12-23T18:39:51.700Z,5.81
2022-12-23T18:42:38.765Z,5.85
2022-12-23T18:45:33.046Z,5.88
2022-12-23T18:48:20.317Z,5.85
2022-12-23T18:51:07.116Z,5.83
2022-12-23T18:53:54.038Z,5.85
2022-12-23T18:56:41.288Z,5.87
2022-12-23T18:59:30.213Z,5.89
2022-12-23T19:02:17.598Z,5.89
2022-12-23T19:05:07.411Z,5.87
2022-12-23T19:07:56.726Z,5.89
2022-12-23T19:10:45.936Z,5.94
2022-12-23T19:13:33.481Z,5.96
2022-12-23T19:16:21.769Z,5.93
2022-12-23T19:19:09.371Z,5.88
2022-12-23T19:21:56.539Z,5.90
2022-12-23T19:25:03.992Z,5.92
2022-12-23T19:27:51.381Z,5.95
2022-12-23T19:30:42.681Z,5.95
2022-12-23T19:33:30.044Z,5.94
2022-12-23T19:36:19.698Z,5.96
2022-12-23T19:39:06.751Z,5.99
2022-12-23T19:41:53.720Z,5.99
2022-12-23T19:44:40.555Z,5.98
2022-12-23T19:47:27.451Z,5.98
2022-12-23T19:50:14.968Z,6.01
2022-12-23T19:53:02.274Z,6.05
2022-12-23T19:56:00.184Z,6.07
2022-12-23T19:58:48.832Z,6.07
2022-12-23T20:01:36.118Z,6.07
2022-12-23T20:04:25.221Z,6.07
2022-12-23T20:07:12.128Z,6.07
2022-12-23T20:09:59.185Z,6.10
2022-12-23T20:12:46.190Z,6.12
2022-12-23T20:15:33.882Z,6.10
2022-12-23T20:18:20.672Z,6.11
2022-12-23T20:21:07.807Z,6.13
2022-12-23T20:23:55.029Z,6.11
2022-12-23T20:26:42.678Z,6.09
2022-12-23T20:29:29.536Z,6.06
2022-12-23T20:32:16.637Z,6.05
2022-12-23T20:35:04.150Z,6.09
2022-12-23T20:37:51.243Z,6.12
2022-12-23T20:40:38.293Z,6.13
2022-12-23T20:43:25.022Z,6.13
2022-12-23T20:46:14.370Z,6.04
2022-12-23T20:49:01.624Z,5.97
2022-12-23T20:51:48.853Z,5.87
2022-12-23T20:54:35.711Z,5.80
2022-12-23T20:57:24.041Z,5.79
2022-12-23T21:00:12.567Z,5.81
2022-12-23T21:03:01.578Z,5.77
2022-12-23T21:05:50.742Z,5.74
2022-12-23T21:08:37.979Z,5.76
2022-12-23T21:11:27.778Z,5.79
2022-12-23T21:14:16.019Z,5.84
2022-12-23T21:17:02.982Z,5.82
2022-12-23T21:19:49.553Z,5.75
2022-12-23T21:22:36.982Z,5.72
2022-12-23T21:25:24.080Z,5.67
2022-12-23T21:28:11.143Z,5.62
2022-12-23T21:30:58.268Z,5.65
2022-12-23T21:33:46.438Z,5.63
2022-12-23T21:36:36.809Z,5.66
2022-12-23T21:39:24.008Z,5.64
2022-12-23T21:42:10.714Z,5.61
2022-12-23T21:44:57.901Z,5.65
2022-12-23T21:47:44.924Z,5.73
2022-12-23T21:50:33.636Z,5.79
2022-12-23T21:53:20.418Z,5.79
2022-12-23T21:56:10.681Z,5.72
2022-12-23T21:58:59.834Z,5.65
2022-12-23T22:01:46.975Z,5.56
2022-12-23T22:04:33.817Z,5.57
2022-12-23T22:07:20.952Z,5.58
2022-12-23T22:10:08.412Z,5.59
2022-12-23T22:12:55.729Z,5.60
2022-12-23T22:15:43.215Z,5.58
2022-12-23T22:18:31.898Z,5.51
2022-12-23T22:21:21.832Z,5.43
2022-12-23T22:24:09.328Z,5.38
2022-12-23T22:26:56.025Z,5.42
2022-12-23T22:29:43.289Z,5.45
2022-12-23T22:32:29.861Z,5.45
2022-12-23T22:35:17.653Z,5.41
2022-12-23T22:38:04.901Z,5.38
2022-12-23T22:40:52.937Z,5.36
2022-12-23T22:43:39.911Z,5.38
2022-12-23T22:46:27.025Z,5.41
2022-12-23T22:49:15.213Z,5.45
2022-12-23T22:52:02.156Z,5.41
2022-12-23T22:54:49.122Z,5.33
2022-12-23T22:57:36.676Z,5.31
2022-12-23T23:00:23.824Z,5.29
2022-12-23T23:03:11.180Z,5.28
2022-12-23T23:06:07.160Z,5.32
2022-12-23T23:08:55.358Z,5.33
2022-12-23T23:11:44.296Z,5.28
2022-12-23T23:14:51.814Z,5.23
2022-12-23T23:17:38.528Z,5.25
2022-12-23T23:20:25.565Z,5.22
2022-12-23T23:23:12.484Z,5.23
2022-12-23T23:25:59.524Z,5.18
2022-12-23T23:28:46.811Z,5.12
2022-12-23T23:31:43.341Z,5.07
2022-12-23T23:34:31.021Z,5.02
2022-12-23T23:37:18.692Z,4.98
2022-12-23T23:40:06.489Z,5.03
2022-12-23T23:42:54.686Z,5.05
2022-12-23T23:45:41.349Z,5.02
2022-12-23T23:48:28.710Z,4.98
2022-12-23T23:51:16.012Z,4.95
2022-12-23T23:54:03.139Z,4.97
2022-12-23T23:56:50.535Z,4.99
2022-12-23T23:59:37.637Z,5.01
